Time;durP1;ratioP1;P1;durP2;ratioP2;P2;SDS_P1;SDS_P2;PMS_P1;PMS_P2;Temp;Humidity;BMP_temperature;BMP_pressure;BME280_temperature;BME280_humidity;BME280_pressure;Samples;Min_cycle;Max_cycle;Signal;HPM_P1;HPM_P2
2023/05/23 00:01:45;;;;;;;19.45;11.80;;;17.10;99.90;;;;;;4839912;29;20076;-93
2023/05/23 00:04:26;;;;;;;17.55;10.30;;;17.00;99.90;;;;;;4842471;29;20069;-91
2023/05/23 00:06:55;;;;;;;21.20;13.23;;;17.00;99.90;;;;;;4809714;29;20050;-93
2023/05/23 00:09:40;;;;;;;18.38;12.60;;;17.00;99.90;;;;;;4824393;29;20554;-93
2023/05/23 00:12:05;;;;;;;17.85;10.57;;;16.90;99.90;;;;;;4826401;29;20058;-92
2023/05/23 00:14:40;;;;;;;17.45;10.70;;;16.90;99.90;;;;;;4842926;29;20042;-95
2023/05/23 00:17:09;;;;;;;17.27;11.25;;;17.00;99.90;;;;;;4827730;29;20488;-93
2023/05/23 00:19:38;;;;;;;17.33;11.23;;;16.90;99.90;;;;;;4826883;29;20046;-92
2023/05/23 00:22:18;;;;;;;;;;;16.90;99.90;;;;;;4824905;29;20091;-93
2023/05/23 00:24:44;;;;;;;16.27;11.13;;;16.70;99.80;;;;;;4808955;29;19928;-94
2023/05/23 00:27:10;;;;;;;20.40;12.07;;;16.70;99.90;;;;;;4830947;29;20507;-92
2023/05/23 00:30:34;;;;;;;17.20;11.70;;;16.70;99.90;;;;;;4807897;29;20047;-94
2023/05/23 00:33:02;;;;;;;17.98;11.93;;;16.70;99.90;;;;;;4807959;29;20075;-93
2023/05/23 00:35:29;;;;;;;20.02;11.80;;;16.70;99.90;;;;;;4824491;29;20054;-91
2023/05/23 00:39:06;;;;;;;17.95;12.18;;;16.70;99.90;;;;;;4832091;29;20407;-94
2023/05/23 00:41:20;;;;;;;22.88;12.68;;;16.70;99.90;;;;;;4807674;29;20055;-91
2023/05/23 00:44:20;;;;;;;;;;;;;;;;;;;;;
2023/05/23 00:47:34;;;;;;;17.48;11.13;;;16.60;99.90;;;;;;4776090;30;20067;-93
2023/05/23 00:50:28;;;;;;;14.18;10.85;;;16.50;99.90;;;;;;4790596;30;20085;-94
2023/05/23 00:53:18;;;;;;;18.55;11.68;;;16.50;99.90;;;;;;4825251;29;20054;-94
2023/05/23 00:55:44;;;;;;;16.50;10.85;;;16.50;99.90;;;;;;4846298;29;20054;-92
2023/05/23 00:58:17;;;;;;;15.77;10.73;;;16.50;99.90;;;;;;4829536;29;20492;-92
2023/05/23 01:00:55;;;;;;;15.90;10.27;;;16.40;99.90;;;;;;4817187;29;20063;-91
2023/05/23 01:03:55;;;;;;;17.15;9.75;;;16.50;99.90;;;;;;4845611;29;20053;-92
2023/05/23 01:06:21;;;;;;;14.68;10.18;;;16.40;99.90;;;;;;4839313;29;20053;-89
2023/05/23 01:09:02;;;;;;;14.65;9.70;;;16.30;99.90;;;;;;4809089;29;20117;-96
2023/05/23 01:12:24;;;;;;;15.95;9.80;;;16.20;99.90;;;;;;4813300;29;20120;-91
2023/05/23 01:15:41;;;;;;;15.52;9.88;;;16.10;99.90;;;;;;4810698;29;20526;-92
2023/05/23 01:18:42;;;;;;;18.27;9.57;;;16.10;99.90;;;;;;4802274;29;20035;-92
2023/05/23 01:21:24;;;;;;;15.80;9.05;;;16.00;99.90;;;;;;4807199;29;20054;-91
2023/05/23 01:24:43;;;;;;;13.90;9.25;;;15.90;99.90;;;;;;4808686;29;20477;-94
2023/05/23 01:28:09;;;;;;;17.50;9.75;;;15.80;99.90;;;;;;4786653;29;20172;-93
2023/05/23 01:34:37;;;;;;;14.57;8.77;;;15.70;99.90;;;;;;4768930;30;20056;-90
2023/05/23 01:37:13;;;;;;;16.65;8.32;;;15.60;99.90;;;;;;4804238;29;20059;-93
2023/05/23 01:40:00;;;;;;;15.55;8.27;;;15.70;99.90;;;;;;4804207;29;20054;-91
2023/05/23 01:42:29;;;;;;;16.10;8.35;;;15.70;99.90;;;;;;4797774;29;20055;-89
2023/05/23 01:45:06;;;;;;;15.52;8.23;;;15.70;99.90;;;;;;4802036;29;20088;-94
2023/05/23 01:48:20;;;;;;;;;;;;;;;;;;;;;
2023/05/23 01:50:44;;;;;;;16.75;7.80;;;15.60;99.90;;;;;;4809960;29;20054;-88
2023/05/23 01:53:12;;;;;;;17.45;8.40;;;15.60;99.90;;;;;;4792123;29;20496;-92
2023/05/23 01:55:41;;;;;;;17.35;8.25;;;15.60;99.90;;;;;;4808908;29;20076;-91
2023/05/23 01:58:07;;;;;;;16.45;8.05;;;15.50;99.90;;;;;;4807660;29;20050;-91
2023/05/23 02:00:33;;;;;;;23.00;8.93;;;15.50;99.90;;;;;;4791647;29;20489;-90
2023/05/23 02:03:00;;;;;;;21.23;9.55;;;15.50;99.90;;;;;;4808654;29;20107;-91
2023/05/23 02:05:26;;;;;;;18.90;9.38;;;15.50;99.90;;;;;;4808576;29;20081;-91
2023/05/23 02:08:03;;;;;;;21.13;9.27;;;15.50;99.90;;;;;;4791566;29;20086;-91
2023/05/23 02:10:29;;;;;;;23.63;9.23;;;15.40;99.90;;;;;;4791698;29;20076;-91
2023/05/23 02:12:55;;;;;;;20.10;9.23;;;15.30;99.90;;;;;;4807899;29;20438;-91
2023/05/23 02:15:20;;;;;;;18.58;8.98;;;15.30;99.90;;;;;;4791903;29;20146;-91
2023/05/23 02:18:38;;;;;;;27.50;9.77;;;15.30;99.90;;;;;;4807867;29;20046;-94
2023/05/23 02:21:12;;;;;;;17.60;9.23;;;15.30;99.90;;;;;;4806894;29;20051;-93
2023/05/23 02:25:17;;;;;;;;;;;;;;;;;;;;;
2023/05/23 02:27:16;;;;;;;20.83;9.85;;;15.20;99.90;;;;;;4783490;29;20483;-95
2023/05/23 02:29:57;;;;;;;22.40;10.15;;;15.30;99.90;;;;;;4808807;29;20043;-94
2023/05/23 02:32:53;;;;;;;19.58;9.43;;;15.20;99.90;;;;;;4809342;29;20050;-93
2023/05/23 02:35:30;;;;;;;23.42;9.82;;;15.10;99.90;;;;;;4791559;30;20050;-96
2023/05/23 02:38:03;;;;;;;23.02;9.80;;;15.10;99.90;;;;;;4808488;29;20054;-94
2023/05/23 02:40:43;;;;;;;19.88;9.07;;;15.00;99.90;;;;;;4844967;29;20050;-96
2023/05/23 02:49:35;;;;;;;25.50;9.38;;;14.80;99.90;;;;;;4852279;24;20058;-94
2023/05/23 02:52:06;;;;;;;20.75;8.63;;;14.80;99.90;;;;;;4851033;29;20204;-94
2023/05/23 02:54:32;;;;;;;19.42;8.70;;;14.80;99.90;;;;;;4858567;29;20045;-92
2023/05/23 02:57:00;;;;;;;22.40;8.65;;;14.80;99.90;;;;;;4845926;29;20056;-93
2023/05/23 02:59:31;;;;;;;16.92;8.10;;;14.80;99.90;;;;;;4856951;29;20078;-90
2023/05/23 03:02:11;;;;;;;19.80;8.10;;;14.70;99.90;;;;;;4844112;29;20125;-94
2023/05/23 03:04:45;;;;;;;20.27;7.93;;;14.70;99.90;;;;;;4861157;29;20490;-92
2023/05/23 03:07:13;;;;;;;19.40;7.60;;;14.60;99.90;;;;;;4858465;29;20050;-94
2023/05/23 03:10:03;;;;;;;28.85;8.32;;;14.60;99.90;;;;;;4845220;29;20506;-93
2023/05/23 03:12:29;;;;;;;16.15;7.60;;;14.50;99.90;;;;;;4856988;29;20373;-93
2023/05/23 03:14:58;;;;;;;28.15;7.43;;;14.40;99.90;;;;;;4843896;29;20052;-93
2023/05/23 03:17:30;;;;;;;21.17;7.93;;;14.50;99.90;;;;;;4849796;29;20051;-94
2023/05/23 03:22:58;;;;;;;21.42;7.80;;;14.40;99.90;;;;;;4847445;29;20464;-93
2023/05/23 03:25:31;;;;;;;22.88;8.00;;;14.40;99.90;;;;;;4835526;24;20062;-91
2023/05/23 03:28:07;;;;;;;;;;;;;;;;;;;;;
2023/05/23 03:30:54;;;;;;;20.05;7.78;;;14.40;99.90;;;;;;4822222;29;20068;-90
2023/05/23 03:33:20;;;;;;;20.95;7.63;;;14.30;99.90;;;;;;4832298;29;20050;-90
2023/05/23 03:35:48;;;;;;;15.75;7.60;;;14.30;99.90;;;;;;4840139;29;20054;-88
2023/05/23 03:38:14;;;;;;;20.13;7.50;;;14.20;99.90;;;;;;4832792;29;20078;-93
2023/05/23 03:40:53;;;;;;;18.80;7.53;;;14.10;99.90;;;;;;4842415;29;20081;-92
2023/05/23 03:43:42;;;;;;;19.00;7.05;;;14.20;99.90;;;;;;4825840;29;20041;-93
2023/05/23 03:46:08;;;;;;;17.27;7.25;;;14.20;99.90;;;;;;4823409;29;20051;-92
2023/05/23 03:48:39;;;;;;;19.63;7.53;;;14.20;99.90;;;;;;4828987;29;20514;-95
2023/05/23 03:51:08;;;;;;;16.67;7.20;;;14.20;99.90;;;;;;4843137;29;20042;-94
2023/05/23 03:53:34;;;;;;;19.77;7.57;;;14.20;99.90;;;;;;4834949;29;20055;-94
2023/05/23 03:56:00;;;;;;;17.05;7.20;;;14.10;99.90;;;;;;4824090;29;20061;-94
2023/05/23 03:58:28;;;;;;;15.20;6.32;;;14.10;99.90;;;;;;4842689;24;20053;-94
2023/05/23 04:01:00;;;;;;;17.17;6.30;;;14.10;99.90;;;;;;4851422;29;20539;-95
2023/05/23 04:04:08;;;;;;;;;;;14.10;99.90;;;;;;4843173;29;20080;-96
2023/05/23 04:06:41;;;;;;;16.02;6.72;;;13.90;99.90;;;;;;4826053;29;19929;-95
2023/05/23 04:09:37;;;;;;;18.43;6.60;;;14.00;99.90;;;;;;4828260;29;20042;-95
2023/05/23 04:12:10;;;;;;;14.25;6.60;;;14.00;99.90;;;;;;4826924;29;20083;-95
2023/05/23 04:14:41;;;;;;;16.95;5.70;;;14.10;99.90;;;;;;4840610;29;20061;-94
2023/05/23 04:17:29;;;;;;;21.85;5.97;;;14.10;99.90;;;;;;4843529;29;20136;-93
2023/05/23 04:19:58;;;;;;;14.60;6.68;;;14.10;99.90;;;;;;4831906;29;20058;-94
2023/05/23 04:25:33;;;;;;;15.80;5.43;;;14.10;99.90;;;;;;4841499;29;20062;-94
2023/05/23 04:27:59;;;;;;;13.52;4.82;;;14.00;99.90;;;;;;4843117;29;20072;-94
2023/05/23 04:30:26;;;;;;;16.23;5.53;;;14.00;99.90;;;;;;4831067;29;20127;-92
2023/05/23 04:32:52;;;;;;;17.27;5.07;;;14.00;99.90;;;;;;4834406;29;20469;-90
2023/05/23 04:35:18;;;;;;;15.15;5.60;;;14.00;99.90;;;;;;4828421;29;20050;-93
2023/05/23 04:37:44;;;;;;;15.35;5.35;;;13.90;99.90;;;;;;4828096;29;20084;-92
2023/05/23 04:40:10;;;;;;;18.23;4.88;;;13.90;99.90;;;;;;4827573;29;20449;-93
2023/05/23 04:42:36;;;;;;;15.18;5.10;;;13.80;99.90;;;;;;4826977;29;20042;-93
2023/05/23 04:45:02;;;;;;;16.67;5.55;;;13.80;99.90;;;;;;4827545;29;20049;-92
2023/05/23 04:47:40;;;;;;;14.93;4.78;;;13.80;99.90;;;;;;4833676;29;20050;-92
2023/05/23 04:50:10;;;;;;;16.63;4.97;;;13.70;99.90;;;;;;4845744;29;20080;-90
2023/05/23 04:52:35;;;;;;;13.60;4.85;;;13.70;99.90;;;;;;4836552;29;20092;-90
2023/05/23 04:55:01;;;;;;;16.65;4.97;;;13.70;99.90;;;;;;4840825;29;20051;-90
2023/05/23 04:57:27;;;;;;;20.35;5.45;;;13.70;99.90;;;;;;4826332;29;20065;-90
2023/05/23 04:59:53;;;;;;;16.70;4.15;;;13.60;99.90;;;;;;4827480;29;20050;-91
2023/05/23 05:02:19;;;;;;;20.35;5.45;;;13.70;99.90;;;;;;4843571;29;20065;-91
2023/05/23 05:04:44;;;;;;;15.48;4.40;;;13.70;99.90;;;;;;4828883;29;20043;-92
2023/05/23 05:07:10;;;;;;;17.15;5.75;;;13.60;99.90;;;;;;4830472;29;20103;-89
2023/05/23 05:09:35;;;;;;;20.83;5.00;;;13.60;99.90;;;;;;4831112;29;20632;-89
2023/05/23 05:12:01;;;;;;;16.23;5.50;;;13.60;99.90;;;;;;4836882;29;20050;-90
2023/05/23 05:14:27;;;;;;;18.85;5.35;;;13.50;99.90;;;;;;4827616;29;20476;-90
2023/05/23 05:16:56;;;;;;;18.48;5.55;;;13.50;99.90;;;;;;4839414;29;20046;-90
2023/05/23 05:19:23;;;;;;;16.13;5.63;;;13.40;99.90;;;;;;4828402;29;20093;-90
2023/05/23 05:21:48;;;;;;;22.42;6.30;;;13.40;99.90;;;;;;4827834;29;20046;-91
2023/05/23 05:24:14;;;;;;;15.50;5.65;;;13.40;99.90;;;;;;4826647;29;20057;-91
2023/05/23 05:26:40;;;;;;;17.38;5.90;;;13.40;99.90;;;;;;4836720;29;20050;-92
2023/05/23 05:29:06;;;;;;;14.77;5.65;;;13.40;99.90;;;;;;4835014;29;20056;-89
2023/05/23 05:31:32;;;;;;;18.88;5.90;;;13.40;99.90;;;;;;4831655;29;20076;-92
2023/05/23 05:33:58;;;;;;;20.45;6.28;;;13.30;99.90;;;;;;4827930;29;20042;-89
2023/05/23 05:36:23;;;;;;;18.45;5.63;;;13.30;99.90;;;;;;4827024;29;20046;-90
2023/05/23 05:38:50;;;;;;;22.02;6.35;;;13.40;99.90;;;;;;4830346;29;20129;-90
2023/05/23 05:41:15;;;;;;;18.25;5.55;;;13.40;99.90;;;;;;4859371;29;20098;-89
2023/05/23 05:43:41;;;;;;;16.58;5.25;;;13.30;99.90;;;;;;4822497;29;20384;-89
2023/05/23 05:46:06;;;;;;;15.43;5.40;;;13.40;99.90;;;;;;4833294;29;20053;-89
2023/05/23 05:48:35;;;;;;;16.27;5.15;;;13.30;99.90;;;;;;4836714;29;20038;-92
2023/05/23 05:51:02;;;;;;;15.98;5.63;;;13.30;99.90;;;;;;4828254;29;20054;-90
2023/05/23 05:53:27;;;;;;;22.52;5.47;;;13.30;99.90;;;;;;4841611;29;20054;-91
2023/05/23 05:55:53;;;;;;;18.88;5.15;;;13.20;99.90;;;;;;4836453;29;20094;-88
2023/05/23 05:58:19;;;;;;;15.57;5.07;;;13.20;99.90;;;;;;4830857;29;20061;-91
2023/05/23 06:00:45;;;;;;;15.52;5.35;;;13.10;99.90;;;;;;4838603;29;20053;-91
2023/05/23 06:03:11;;;;;;;18.17;5.43;;;13.10;99.90;;;;;;4842134;29;20080;-89
2023/05/23 06:05:38;;;;;;;14.30;5.05;;;13.10;99.90;;;;;;4843824;29;20478;-92
2023/05/23 06:08:04;;;;;;;15.85;5.30;;;13.10;99.90;;;;;;4840830;29;20050;-91
2023/05/23 06:10:29;;;;;;;15.15;4.90;;;13.10;99.90;;;;;;4842926;29;20544;-92
2023/05/23 06:12:56;;;;;;;16.58;5.70;;;13.10;99.90;;;;;;4807877;29;20088;-89
2023/05/23 06:15:22;;;;;;;15.88;5.15;;;13.00;99.90;;;;;;4838314;29;20041;-92
2023/05/23 06:17:48;;;;;;;12.65;5.00;;;13.00;99.90;;;;;;4834107;29;20380;-89
2023/05/23 06:20:13;;;;;;;13.00;4.53;;;13.00;99.90;;;;;;4854653;29;20056;-90
2023/05/23 06:22:39;;;;;;;16.95;4.65;;;12.90;99.90;;;;;;4856769;29;20057;-92
2023/05/23 06:25:05;;;;;;;18.08;4.78;;;12.90;99.90;;;;;;4822743;29;20050;-88
2023/05/23 06:27:31;;;;;;;13.98;4.43;;;12.90;99.90;;;;;;4814854;29;20047;-89
2023/05/23 06:29:57;;;;;;;13.35;4.75;;;12.90;99.90;;;;;;4823471;29;20176;-92
2023/05/23 06:32:22;;;;;;;13.20;4.40;;;13.00;99.90;;;;;;4822841;29;20484;-89
2023/05/23 06:34:48;;;;;;;14.25;5.03;;;13.00;99.90;;;;;;4823060;29;20047;-90
2023/05/23 06:37:13;;;;;;;14.70;4.30;;;13.00;99.90;;;;;;4825095;29;20054;-89
2023/05/23 06:39:39;;;;;;;13.90;4.53;;;13.00;99.90;;;;;;4833043;29;20057;-88
2023/05/23 06:42:05;;;;;;;12.38;4.00;;;13.00;99.90;;;;;;4841239;29;20058;-88
2023/05/23 06:44:31;;;;;;;13.75;4.03;;;13.00;99.90;;;;;;4824470;29;20042;-90
2023/05/23 06:46:57;;;;;;;11.82;3.70;;;13.00;99.90;;;;;;4838084;29;20119;-89
2023/05/23 06:49:23;;;;;;;15.05;3.67;;;13.00;99.90;;;;;;4833333;29;20403;-90
2023/05/23 06:51:50;;;;;;;14.43;3.60;;;13.00;99.90;;;;;;4838999;29;20473;-91
2023/05/23 06:54:16;;;;;;;15.50;4.55;;;12.90;99.90;;;;;;4820802;29;20050;-92
2023/05/23 06:56:41;;;;;;;21.17;4.40;;;12.90;99.90;;;;;;4808349;29;20397;-94
2023/05/23 06:59:07;;;;;;;18.15;4.22;;;13.00;99.90;;;;;;4819124;29;20125;-91
2023/05/23 07:01:32;;;;;;;14.43;4.13;;;12.90;99.90;;;;;;4835997;29;20091;-91
2023/05/23 07:03:58;;;;;;;20.20;4.00;;;12.90;99.90;;;;;;4818610;29;20057;-92
2023/05/23 07:06:26;;;;;;;17.05;3.90;;;13.00;99.90;;;;;;4825535;29;20054;-91
2023/05/23 07:08:52;;;;;;;13.75;3.45;;;13.00;99.90;;;;;;4824314;29;20054;-90
2023/05/23 07:11:17;;;;;;;19.05;4.63;;;13.00;99.90;;;;;;4824114;29;20054;-90
2023/05/23 07:13:43;;;;;;;13.25;3.67;;;13.00;99.90;;;;;;4824924;29;20042;-90
2023/05/23 07:16:09;;;;;;;14.45;3.90;;;13.00;99.90;;;;;;4823615;29;20403;-89
2023/05/23 07:18:34;;;;;;;18.52;4.20;;;13.00;99.90;;;;;;4824395;29;20084;-90
2023/05/23 07:21:00;;;;;;;16.75;3.95;;;13.00;99.90;;;;;;4815808;29;20047;-88
2023/05/23 07:23:26;;;;;;;18.17;3.55;;;13.00;99.90;;;;;;4820133;29;20477;-89
2023/05/23 07:25:51;;;;;;;14.45;3.83;;;13.00;99.90;;;;;;4823114;29;20407;-91
2023/05/23 07:28:18;;;;;;;19.10;3.85;;;13.00;99.90;;;;;;4823725;29;20058;-88
2023/05/23 07:30:45;;;;;;;16.48;3.60;;;13.00;99.60;;;;;;4824045;29;20046;-91
2023/05/23 07:33:10;;;;;;;20.58;4.20;;;13.00;99.10;;;;;;4824655;29;20050;-88
2023/05/23 07:35:36;;;;;;;19.70;4.28;;;13.00;98.70;;;;;;4822956;29;20496;-88
2023/05/23 07:38:01;;;;;;;18.25;3.72;;;13.00;98.50;;;;;;4823063;29;20131;-87
2023/05/23 07:40:27;;;;;;;17.30;3.22;;;12.90;98.60;;;;;;4823135;29;20046;-89
2023/05/23 07:42:53;;;;;;;21.20;4.15;;;13.00;99.20;;;;;;4824453;29;20085;-88
2023/05/23 07:45:18;;;;;;;16.10;3.85;;;13.00;98.90;;;;;;4823995;29;20567;-92
2023/05/23 07:47:44;;;;;;;15.73;3.65;;;12.90;99.10;;;;;;4823874;29;20051;-89
2023/05/23 07:50:10;;;;;;;19.45;3.58;;;12.90;99.60;;;;;;4824568;29;20091;-88
2023/05/23 07:52:35;;;;;;;19.08;3.80;;;12.90;99.20;;;;;;4837140;29;20110;-87
2023/05/23 07:55:01;;;;;;;21.55;3.90;;;12.90;98.80;;;;;;4824023;29;20054;-89
2023/05/23 07:57:27;;;;;;;21.70;3.67;;;12.90;99.00;;;;;;4842000;29;20059;-89
2023/05/23 07:59:53;;;;;;;18.63;4.07;;;12.90;99.00;;;;;;4822568;29;20058;-90
2023/05/23 08:02:19;;;;;;;20.15;3.35;;;12.90;98.50;;;;;;4809762;29;20084;-91
2023/05/23 08:04:46;;;;;;;20.67;3.70;;;12.80;97.50;;;;;;4810243;29;20047;-91
2023/05/23 08:07:11;;;;;;;18.58;3.80;;;12.80;97.60;;;;;;4825629;29;20046;-90
2023/05/23 08:09:39;;;;;;;19.08;3.28;;;12.80;97.30;;;;;;4840332;29;20053;-89
2023/05/23 08:12:05;;;;;;;15.77;3.47;;;12.80;97.60;;;;;;4830038;29;20047;-91
2023/05/23 08:14:31;;;;;;;19.02;3.40;;;12.80;97.70;;;;;;4818312;29;20453;-91
2023/05/23 08:16:57;;;;;;;19.33;4.03;;;12.80;97.70;;;;;;4826247;29;20050;-89
2023/05/23 08:19:22;;;;;;;19.20;3.72;;;12.80;97.30;;;;;;4825682;29;20129;-90
2023/05/23 08:21:48;;;;;;;23.90;3.60;;;12.80;97.60;;;;;;4823917;29;20046;-91
2023/05/23 08:24:14;;;;;;;16.35;3.75;;;12.80;97.90;;;;;;4810266;29;20043;-92
2023/05/23 08:26:40;;;;;;;17.05;3.55;;;12.90;98.00;;;;;;4809623;29;20058;-90
2023/05/23 08:29:09;;;;;;;17.35;3.95;;;12.90;97.40;;;;;;4824835;29;20046;-90
2023/05/23 08:31:34;;;;;;;17.60;3.20;;;12.90;97.40;;;;;;4810102;29;20050;-89
2023/05/23 08:34:00;;;;;;;15.50;3.40;;;13.00;97.20;;;;;;4822183;29;20049;-89
2023/05/23 08:36:26;;;;;;;21.00;4.38;;;13.00;96.90;;;;;;4812044;29;20042;-93
2023/05/23 08:38:51;;;;;;;19.40;3.50;;;13.00;96.50;;;;;;4817263;29;20050;-91
2023/05/23 08:41:26;;;;;;;18.73;3.90;;;13.00;96.50;;;;;;4824122;29;20058;-90
2023/05/23 08:43:51;;;;;;;19.30;3.65;;;13.10;96.50;;;;;;4827045;29;20070;-89
2023/05/23 08:46:17;;;;;;;19.02;4.78;;;13.20;96.80;;;;;;4809690;29;20042;-89
2023/05/23 08:48:48;;;;;;;16.15;3.75;;;13.20;96.40;;;;;;4818906;29;20085;-88
2023/05/23 08:51:16;;;;;;;20.58;3.65;;;13.30;95.60;;;;;;4821911;29;20050;-92
2023/05/23 08:53:45;;;;;;;16.40;3.70;;;13.30;95.70;;;;;;4826433;29;20511;-88
2023/05/23 08:56:12;;;;;;;16.95;3.80;;;13.30;96.00;;;;;;4811655;29;20131;-89
2023/05/23 08:58:40;;;;;;;17.48;3.50;;;13.30;96.60;;;;;;4819895;29;20054;-90
2023/05/23 09:01:08;;;;;;;20.75;4.15;;;13.40;96.20;;;;;;4813049;29;20058;-92
2023/05/23 09:03:36;;;;;;;17.90;3.90;;;13.40;95.90;;;;;;4837601;29;20051;-89
2023/05/23 09:06:04;;;;;;;17.02;3.92;;;13.40;95.30;;;;;;4821959;29;20054;-89
2023/05/23 09:08:34;;;;;;;20.17;3.78;;;13.40;95.50;;;;;;4808009;29;20488;-89
2023/05/23 09:11:04;;;;;;;18.15;4.00;;;13.50;95.50;;;;;;4808340;29;20082;-89
2023/05/23 09:13:31;;;;;;;18.92;3.70;;;13.50;95.10;;;;;;4809290;29;20073;-87
2023/05/23 09:16:05;;;;;;;21.35;3.65;;;13.60;95.40;;;;;;4836669;29;20105;-91
2023/05/23 09:18:42;;;;;;;16.15;3.63;;;13.60;94.90;;;;;;4824291;29;20042;-87
2023/05/23 09:21:09;;;;;;;20.42;4.00;;;13.70;94.60;;;;;;4823884;29;20125;-90
2023/05/23 09:23:36;;;;;;;16.10;3.60;;;13.60;94.40;;;;;;4824257;29;20062;-87
2023/05/23 09:26:06;;;;;;;19.10;4.28;;;13.60;93.90;;;;;;4818774;29;20057;-88
2023/05/23 09:28:33;;;;;;;17.23;3.50;;;13.60;94.10;;;;;;4828689;29;20414;-87
2023/05/23 09:31:00;;;;;;;18.10;3.88;;;13.60;93.90;;;;;;4823520;29;20042;-87
2023/05/23 09:33:47;;;;;;;19.02;3.90;;;13.60;94.40;;;;;;4823687;29;20050;-86
2023/05/23 09:36:13;;;;;;;15.70;3.50;;;13.60;93.80;;;;;;4825729;29;20051;-85
2023/05/23 09:38:40;;;;;;;16.92;3.38;;;13.60;93.90;;;;;;4823522;29;20069;-88
2023/05/23 09:41:06;;;;;;;15.70;3.42;;;13.60;93.70;;;;;;4819156;29;20091;-87
2023/05/23 09:43:32;;;;;;;17.55;3.92;;;13.60;94.00;;;;;;4823581;29;20108;-87
2023/05/23 09:46:10;;;;;;;19.33;3.78;;;13.70;94.30;;;;;;4821546;29;20043;-91
2023/05/23 09:48:36;;;;;;;19.33;3.83;;;13.70;94.60;;;;;;4819514;29;20082;-90
2023/05/23 09:51:07;;;;;;;20.27;3.90;;;13.80;94.10;;;;;;4822713;29;20053;-87
2023/05/23 09:53:33;;;;;;;18.52;3.65;;;13.90;93.80;;;;;;4819726;29;20058;-87
2023/05/23 09:56:01;;;;;;;17.88;3.13;;;13.90;93.70;;;;;;4825792;29;20035;-90
2023/05/23 09:58:29;;;;;;;15.10;3.45;;;14.00;93.70;;;;;;4821967;29;20385;-89
2023/05/23 10:00:56;;;;;;;16.33;3.50;;;14.00;93.80;;;;;;4859554;29;20057;-88
2023/05/23 10:03:47;;;;;;;17.27;3.70;;;14.10;94.00;;;;;;4835853;29;20050;-87
2023/05/23 10:06:36;;;;;;;17.98;3.42;;;14.10;93.20;;;;;;4823183;29;20710;-87
2023/05/23 10:09:04;;;;;;;18.05;3.85;;;14.10;93.90;;;;;;4832976;29;20043;-86
2023/05/23 10:11:32;;;;;;;16.73;3.50;;;14.20;93.20;;;;;;4818532;29;20043;-85
2023/05/23 10:14:03;;;;;;;20.33;3.53;;;14.30;92.90;;;;;;4816615;29;20047;-83
2023/05/23 10:16:38;;;;;;;14.40;3.35;;;14.30;93.00;;;;;;4821960;29;20045;-84
2023/05/23 10:19:27;;;;;;;16.60;3.47;;;14.30;92.70;;;;;;4824219;29;20054;-85
2023/05/23 10:22:07;;;;;;;15.30;3.20;;;14.30;92.10;;;;;;4824949;29;20103;-84
2023/05/23 10:24:34;;;;;;;15.85;3.30;;;14.30;92.70;;;;;;4823557;29;20115;-86
2023/05/23 10:27:01;;;;;;;12.98;3.10;;;14.30;92.80;;;;;;4824173;29;20054;-86
2023/05/23 10:29:28;;;;;;;18.42;3.67;;;14.30;92.70;;;;;;4823815;29;20058;-86
2023/05/23 10:31:55;;;;;;;11.98;2.92;;;14.40;92.70;;;;;;4823475;29;20050;-85
2023/05/23 10:35:00;;;;;;;17.27;3.22;;;14.40;92.90;;;;;;4823315;29;20046;-85
2023/05/23 10:37:41;;;;;;;21.25;3.55;;;14.30;92.60;;;;;;4825141;29;20042;-85
2023/05/23 10:40:20;;;;;;;19.58;3.78;;;14.30;92.70;;;;;;4823024;29;20096;-87
2023/05/23 10:43:25;;;;;;;15.98;3.42;;;14.40;92.40;;;;;;4838179;29;20599;-86
2023/05/23 10:45:51;;;;;;;13.77;3.00;;;14.40;92.60;;;;;;4824033;29;20058;-86
2023/05/23 10:48:21;;;;;;;18.40;3.17;;;14.50;93.70;;;;;;4824475;29;20148;-86
2023/05/23 10:51:02;;;;;;;18.33;3.28;;;14.50;92.80;;;;;;4824764;29;20050;-85
2023/05/23 10:53:29;;;;;;;15.93;3.53;;;14.60;92.50;;;;;;4824984;29;20568;-84
2023/05/23 10:55:55;;;;;;;15.30;3.20;;;14.70;92.90;;;;;;4822653;29;20082;-84
2023/05/23 10:58:22;;;;;;;17.42;3.30;;;14.70;92.80;;;;;;4806465;29;20135;-85
2023/05/23 11:01:01;;;;;;;18.30;3.95;;;14.70;92.50;;;;;;4804465;29;20058;-86
2023/05/23 11:03:45;;;;;;;15.40;3.05;;;14.80;92.30;;;;;;4806445;29;20123;-85
2023/05/23 11:06:43;;;;;;;13.82;3.10;;;14.80;93.00;;;;;;4805504;29;20054;-88
2023/05/23 11:09:11;;;;;;;17.60;2.88;;;14.80;92.80;;;;;;4805724;29;20050;-84
2023/05/23 11:11:59;;;;;;;15.07;3.20;;;14.80;92.40;;;;;;4811271;29;20051;-87
2023/05/23 11:14:39;;;;;;;14.40;3.10;;;14.80;92.00;;;;;;4823199;29;20054;-87
2023/05/23 11:17:11;;;;;;;16.48;2.90;;;14.90;92.30;;;;;;4821559;29;20050;-88
2023/05/23 11:19:54;;;;;;;16.63;2.97;;;14.80;91.80;;;;;;4823167;29;20085;-93
2023/05/23 11:22:27;;;;;;;14.57;3.03;;;15.00;91.50;;;;;;4822754;29;20057;-90
2023/05/23 11:24:54;;;;;;;19.15;3.45;;;14.90;92.00;;;;;;4824427;29;20373;-88
2023/05/23 11:27:48;;;;;;;19.67;3.58;;;14.90;91.80;;;;;;4823122;29;20057;-87
2023/05/23 11:30:15;;;;;;;;;;;14.90;92.00;;;;;;4821147;29;20137;-88
2023/05/23 11:32:41;;;;;;;18.50;3.58;;;14.80;90.80;;;;;;4822608;29;19924;-88
2023/05/23 11:35:10;;;;;;;21.20;3.83;;;14.80;92.60;;;;;;4824671;29;20130;-87
2023/05/23 11:37:37;;;;;;;16.65;3.42;;;14.80;91.90;;;;;;4822685;29;20046;-88
2023/05/23 11:40:26;;;;;;;14.95;3.00;;;14.80;92.40;;;;;;4822955;29;20113;-87
2023/05/23 11:42:53;;;;;;;16.90;3.95;;;14.80;93.00;;;;;;4823449;29;20050;-86
2023/05/23 11:45:19;;;;;;;16.48;3.17;;;14.80;93.20;;;;;;4823419;29;20441;-88
2023/05/23 11:47:45;;;;;;;13.82;3.47;;;14.90;92.90;;;;;;4814384;29;20076;-87
2023/05/23 11:50:11;;;;;;;19.70;3.53;;;14.90;93.50;;;;;;4805560;29;20099;-88
2023/05/23 11:52:37;;;;;;;17.40;3.28;;;15.00;93.20;;;;;;4834833;29;20055;-87
2023/05/23 11:55:03;;;;;;;17.25;3.50;;;15.00;92.80;;;;;;4806188;29;20047;-86
2023/05/23 11:57:29;;;;;;;16.58;2.97;;;15.00;92.00;;;;;;4834885;29;20055;-86
2023/05/23 11:59:55;;;;;;;18.33;3.33;;;15.10;92.40;;;;;;4814347;29;20055;-87
2023/05/23 12:02:23;;;;;;;21.13;3.45;;;15.20;92.40;;;;;;4805832;29;20507;-87
2023/05/23 12:04:49;;;;;;;13.95;3.40;;;15.20;92.50;;;;;;4804643;29;20560;-86
2023/05/23 12:07:19;;;;;;;17.20;3.40;;;15.20;91.40;;;;;;4806023;29;20399;-87
2023/05/23 12:09:45;;;;;;;16.20;3.35;;;15.20;91.10;;;;;;4804559;29;20067;-86
2023/05/23 12:12:12;;;;;;;11.65;3.22;;;15.20;91.60;;;;;;4803970;29;20405;-87
2023/05/23 12:14:43;;;;;;;16.60;3.28;;;15.20;92.30;;;;;;4804242;29;20046;-84
2023/05/23 12:17:11;;;;;;;14.52;2.90;;;15.30;91.90;;;;;;4805007;29;20143;-87
2023/05/23 12:19:37;;;;;;;15.75;3.35;;;15.30;91.60;;;;;;4807653;29;20541;-86
2023/05/23 12:22:07;;;;;;;17.77;3.78;;;15.20;91.00;;;;;;4823711;29;20047;-87
2023/05/23 12:24:33;;;;;;;16.15;3.13;;;15.20;91.00;;;;;;4816761;29;20062;-86
2023/05/23 12:27:00;;;;;;;18.23;3.22;;;15.10;91.20;;;;;;4816958;29;20053;-87
2023/05/23 12:29:34;;;;;;;13.55;3.20;;;15.00;91.40;;;;;;4821272;29;20065;-84
2023/05/23 12:32:06;;;;;;;13.38;3.00;;;15.10;91.70;;;;;;4822568;29;20088;-87
2023/05/23 12:34:32;;;;;;;13.00;2.97;;;15.10;92.40;;;;;;4822296;29;20135;-84
2023/05/23 12:37:02;;;;;;;12.73;3.13;;;15.20;93.00;;;;;;4823899;29;20130;-85
2023/05/23 12:39:28;;;;;;;11.60;2.72;;;15.20;91.30;;;;;;4818142;29;20070;-86
2023/05/23 12:42:08;;;;;;;13.98;2.85;;;15.20;90.40;;;;;;4816117;29;20050;-85
2023/05/23 12:44:34;;;;;;;13.50;3.08;;;15.20;91.00;;;;;;4825385;29;20066;-84
2023/05/23 12:46:59;;;;;;;12.15;2.60;;;15.30;91.30;;;;;;4825121;29;20086;-86
2023/05/23 12:49:25;;;;;;;17.48;3.35;;;15.30;91.30;;;;;;4826528;29;20399;-86
2023/05/23 12:51:50;;;;;;;17.15;2.97;;;15.30;91.50;;;;;;4826321;29;20042;-87
2023/05/23 12:54:16;;;;;;;14.13;2.75;;;15.40;90.90;;;;;;4825920;29;20464;-86
2023/05/23 12:56:42;;;;;;;12.60;2.63;;;15.40;90.00;;;;;;4824736;29;20053;-85
2023/05/23 12:59:08;;;;;;;15.50;3.25;;;15.50;91.50;;;;;;4826445;29;20412;-86
2023/05/23 13:01:34;;;;;;;13.02;2.88;;;15.60;91.50;;;;;;4803188;29;20052;-86
2023/05/23 13:04:00;;;;;;;13.52;2.80;;;15.60;91.20;;;;;;4810438;29;20502;-86
2023/05/23 13:06:26;;;;;;;10.63;2.50;;;15.60;90.20;;;;;;4810099;29;20054;-86
2023/05/23 13:08:53;;;;;;;10.75;2.25;;;15.60;89.50;;;;;;4809205;29;20137;-88
2023/05/23 13:11:21;;;;;;;10.68;2.50;;;15.70;89.70;;;;;;4804541;29;20058;-85
2023/05/23 13:13:47;;;;;;;12.43;2.28;;;15.70;90.30;;;;;;4817729;29;20128;-86
2023/05/23 13:16:13;;;;;;;11.82;2.50;;;15.70;90.10;;;;;;4808545;29;20046;-86
2023/05/23 13:18:39;;;;;;;14.60;2.67;;;15.70;88.10;;;;;;4825343;29;20034;-87
2023/05/23 13:21:05;;;;;;;11.50;2.53;;;15.70;89.10;;;;;;4826288;29;20111;-88